createdAt,value
2022-10-10T02:00:52.797Z,6.95
2022-10-10T02:01:13.378Z,6.95
2022-10-10T02:01:33.964Z,6.95
2022-10-10T02:01:54.551Z,6.94
2022-10-10T02:02:14.943Z,6.92
2022-10-10T02:02:36.489Z,6.92
2022-10-10T02:02:57.082Z,6.94
2022-10-10T02:03:17.678Z,6.95
2022-10-10T02:03:38.261Z,6.94
2022-10-10T02:03:58.653Z,6.95
2022-10-10T02:04:19.236Z,6.94
2022-10-10T02:04:39.829Z,6.94
2022-10-10T02:05:00.407Z,6.92
2022-10-10T02:05:20.988Z,6.92
2022-10-10T02:05:41.570Z,6.94
2022-10-10T02:06:02.153Z,6.92
2022-10-10T02:06:22.740Z,6.92
2022-10-10T02:06:43.139Z,6.94
2022-10-10T02:07:03.721Z,6.92
2022-10-10T02:07:24.304Z,6.94
2022-10-10T02:07:44.886Z,6.94
2022-10-10T02:08:05.487Z,6.92
2022-10-10T02:08:26.073Z,6.92
2022-10-10T02:08:46.655Z,6.92
2022-10-10T02:09:07.240Z,6.92
2022-10-10T02:09:27.821Z,6.92
2022-10-10T02:09:48.407Z,6.94
2022-10-10T02:10:08.991Z,6.95
2022-10-10T02:10:29.575Z,6.94
2022-10-10T02:10:50.158Z,6.94
2022-10-10T02:11:10.732Z,6.94
2022-10-10T02:11:31.125Z,6.95
2022-10-10T02:11:51.709Z,6.94
2022-10-10T02:12:12.294Z,6.94
2022-10-10T02:12:32.873Z,6.94
2022-10-10T02:12:54.679Z,6.92
2022-10-10T02:13:15.698Z,6.92
2022-10-10T02:13:36.280Z,6.92
2022-10-10T02:13:56.675Z,6.92
2022-10-10T02:14:17.259Z,6.92
2022-10-10T02:14:37.839Z,6.94
2022-10-10T02:14:58.423Z,6.92
2022-10-10T02:15:19.004Z,6.92
2022-10-10T02:15:39.587Z,6.92
2022-10-10T02:16:00.190Z,6.92
2022-10-10T02:16:20.751Z,6.92
2022-10-10T02:16:41.333Z,6.94
2022-10-10T02:17:01.918Z,6.92
2022-10-10T02:17:22.507Z,6.91
2022-10-10T02:17:43.083Z,6.91
2022-10-10T02:18:03.673Z,6.91
2022-10-10T02:18:24.264Z,6.92
2022-10-10T02:18:44.846Z,6.91
2022-10-10T02:19:05.426Z,6.91
2022-10-10T02:19:26.012Z,6.89
2022-10-10T02:19:46.594Z,6.91
2022-10-10T02:20:07.179Z,6.91
2022-10-10T02:20:27.574Z,6.91
2022-10-10T02:20:48.159Z,6.89
2022-10-10T02:21:08.739Z,6.89
2022-10-10T02:21:29.131Z,6.89
2022-10-10T02:21:49.524Z,6.89
2022-10-10T02:22:10.115Z,6.89
2022-10-10T02:22:30.697Z,6.88
2022-10-10T02:22:51.630Z,6.89
2022-10-10T02:24:00.210Z,6.88
2022-10-10T02:24:20.796Z,6.87
2022-10-10T02:24:41.375Z,6.87
2022-10-10T02:25:01.771Z,6.87
2022-10-10T02:25:22.349Z,6.87
2022-10-10T02:25:42.933Z,6.88
2022-10-10T02:26:03.516Z,6.87
2022-10-10T02:26:24.102Z,6.87
2022-10-10T02:26:44.682Z,6.85
2022-10-10T02:27:05.279Z,6.85
2022-10-10T02:27:25.847Z,6.85
2022-10-10T02:27:46.428Z,6.85
2022-10-10T02:28:06.864Z,6.84
2022-10-10T02:28:27.510Z,6.84
2022-10-10T02:28:48.074Z,6.85
2022-10-10T02:29:08.663Z,6.81
2022-10-10T02:29:29.244Z,6.84
2022-10-10T02:29:49.826Z,6.81
2022-10-10T02:30:10.410Z,6.84
2022-10-10T02:30:30.991Z,6.80
2022-10-10T02:31:39.425Z,6.80
2022-10-10T02:31:59.955Z,6.81
2022-10-10T02:32:20.535Z,6.79
2022-10-10T02:32:41.117Z,6.80
2022-10-10T02:33:01.698Z,6.80
2022-10-10T02:33:22.295Z,6.80
2022-10-10T02:33:42.875Z,6.80
2022-10-10T02:34:03.455Z,6.80
2022-10-10T02:34:24.035Z,6.79
2022-10-10T02:34:44.615Z,6.80
2022-10-10T02:35:05.197Z,6.80
2022-10-10T02:35:25.783Z,6.80
2022-10-10T02:35:46.359Z,6.81
2022-10-10T02:36:06.754Z,6.80
2022-10-10T02:36:27.338Z,6.80
2022-10-10T02:36:47.731Z,6.81
2022-10-10T02:37:08.311Z,6.80
2022-10-10T02:37:28.707Z,6.81
2022-10-10T02:37:49.289Z,6.80
2022-10-10T02:38:09.872Z,6.81
2022-10-10T02:38:30.466Z,6.81
2022-10-10T02:38:51.050Z,6.80
2022-10-10T02:39:11.630Z,6.80
2022-10-10T02:39:32.216Z,6.80
2022-10-10T02:40:40.579Z,6.80
2022-10-10T02:41:01.165Z,6.77
2022-10-10T02:41:21.756Z,6.79
2022-10-10T02:41:42.337Z,6.79
2022-10-10T02:42:03.129Z,6.79
2022-10-10T02:42:23.912Z,6.79
2022-10-10T02:42:44.312Z,6.77
2022-10-10T02:43:04.895Z,6.79
2022-10-10T02:43:25.490Z,6.76
2022-10-10T02:43:46.071Z,6.76
2022-10-10T02:44:06.656Z,6.79
2022-10-10T02:44:27.236Z,6.77
2022-10-10T02:44:47.819Z,6.76
2022-10-10T02:45:08.407Z,6.76
2022-10-10T02:45:28.987Z,6.76
2022-10-10T02:45:49.567Z,6.76
2022-10-10T02:46:10.151Z,6.77
2022-10-10T02:46:30.733Z,6.74
2022-10-10T02:46:51.335Z,6.74
2022-10-10T02:47:59.699Z,6.74
2022-10-10T02:48:20.105Z,6.76
2022-10-10T02:48:40.684Z,6.73
2022-10-10T02:49:01.265Z,6.74
2022-10-10T02:49:23.482Z,6.73
2022-10-10T02:49:44.061Z,6.74
2022-10-10T02:50:04.643Z,6.74
2022-10-10T02:50:25.227Z,6.73
2022-10-10T02:50:45.813Z,6.73
2022-10-10T02:51:06.394Z,6.74
2022-10-10T02:51:30.278Z,6.71
2022-10-10T02:51:47.179Z,6.71
2022-10-10T02:52:07.762Z,6.71
2022-10-10T02:52:28.346Z,6.73
2022-10-10T02:52:49.231Z,6.71
2022-10-10T02:53:09.318Z,6.73
2022-10-10T02:53:29.914Z,6.71
2022-10-10T02:53:50.499Z,6.71
2022-10-10T02:54:11.080Z,6.73
2022-10-10T02:54:31.661Z,6.73
2022-10-10T02:54:52.245Z,6.71
2022-10-10T02:55:12.827Z,6.73
2022-10-10T02:55:33.413Z,6.74
2022-10-10T02:55:53.988Z,6.73
2022-10-10T02:56:14.574Z,6.73
2022-10-10T02:56:35.150Z,6.70
2022-10-10T02:56:55.546Z,6.71
2022-10-10T02:57:16.124Z,6.73
2022-10-10T02:57:36.709Z,6.73
2022-10-10T02:57:57.287Z,6.71
2022-10-10T02:58:17.872Z,6.71
2022-10-10T02:58:38.465Z,6.73
2022-10-10T02:58:59.051Z,6.73
2022-10-10T02:59:19.629Z,6.73
2022-10-10T02:59:40.212Z,6.71
2022-10-10T03:00:00.794Z,6.73
2022-10-10T03:00:21.374Z,6.71
2022-10-10T03:00:41.960Z,6.70
2022-10-10T03:01:02.666Z,6.70
2022-10-10T03:01:23.282Z,6.70
2022-10-10T03:01:43.835Z,6.71
2022-10-10T03:02:04.440Z,6.70
2022-10-10T03:02:25.000Z,6.70
2022-10-10T03:02:45.578Z,6.69
2022-10-10T03:03:06.168Z,6.70
2022-10-10T03:03:26.765Z,6.67
2022-10-10T03:03:47.346Z,6.69
2022-10-10T03:04:07.737Z,6.69
2022-10-10T03:04:28.319Z,6.69
2022-10-10T03:04:48.897Z,6.70
2022-10-10T03:05:09.481Z,6.69
2022-10-10T03:05:30.063Z,6.67
2022-10-10T03:05:50.454Z,6.69
2022-10-10T03:06:11.036Z,6.67
2022-10-10T03:06:31.617Z,6.67
2022-10-10T03:06:52.203Z,6.69
2022-10-10T03:07:12.790Z,6.67
2022-10-10T03:07:33.202Z,6.67
2022-10-10T03:07:53.594Z,6.69
2022-10-10T03:08:14.179Z,6.66
2022-10-10T03:08:34.761Z,6.66
2022-10-10T03:08:55.353Z,6.66
2022-10-10T03:09:15.931Z,6.67
2022-10-10T03:09:36.514Z,6.66
2022-10-10T03:09:57.097Z,6.66
2022-10-10T03:10:17.679Z,6.66
2022-10-10T03:10:38.260Z,6.66
2022-10-10T03:10:58.838Z,6.67
2022-10-10T03:11:19.424Z,6.66
2022-10-10T03:11:40.002Z,6.64
2022-10-10T03:12:00.582Z,6.64
2022-10-10T03:12:21.165Z,6.66
2022-10-10T03:12:41.748Z,6.64
2022-10-10T03:13:02.328Z,6.64
2022-10-10T03:13:22.928Z,6.67
2022-10-10T03:13:43.514Z,6.64
2022-10-10T03:14:04.094Z,6.62
2022-10-10T03:14:24.678Z,6.62
2022-10-10T03:14:45.262Z,6.61
2022-10-10T03:15:09.344Z,6.61
2022-10-10T03:15:26.252Z,6.62
2022-10-10T03:15:46.840Z,6.62
2022-10-10T03:16:07.235Z,6.59
2022-10-10T03:16:27.818Z,6.59
2022-10-10T03:16:48.402Z,6.58
2022-10-10T03:17:09.005Z,6.58
2022-10-10T03:17:29.569Z,6.58
2022-10-10T03:17:50.149Z,6.59
2022-10-10T03:18:10.733Z,6.58
2022-10-10T03:18:31.331Z,6.58
2022-10-10T03:18:51.918Z,6.58
2022-10-10T03:19:12.510Z,6.58
2022-10-10T03:19:33.094Z,6.59
2022-10-10T03:19:53.677Z,6.56
2022-10-10T03:20:14.259Z,6.58
2022-10-10T03:20:34.838Z,6.58
2022-10-10T03:20:55.418Z,6.58
2022-10-10T03:21:15.817Z,6.58
2022-10-10T03:21:36.402Z,6.58
2022-10-10T03:21:56.982Z,6.58
2022-10-10T03:22:17.561Z,6.56
2022-10-10T03:22:38.148Z,6.58
2022-10-10T03:22:58.726Z,6.56
2022-10-10T03:23:19.321Z,6.56
2022-10-10T03:23:39.907Z,6.58
2022-10-10T03:24:00.487Z,6.58
2022-10-10T03:24:21.070Z,6.56
2022-10-10T03:24:41.655Z,6.58
2022-10-10T03:25:02.235Z,6.58
2022-10-10T03:25:22.820Z,6.58
2022-10-10T03:25:43.404Z,6.59
2022-10-10T03:26:03.982Z,6.59
2022-10-10T03:26:24.565Z,6.59
2022-10-10T03:26:45.148Z,6.58
2022-10-10T03:27:05.731Z,6.59
2022-10-10T03:27:26.127Z,6.56
2022-10-10T03:27:46.707Z,6.56
2022-10-10T03:28:07.394Z,6.56
2022-10-10T03:28:28.003Z,6.58
2022-10-10T03:28:48.559Z,6.56
2022-10-10T03:29:09.148Z,6.56
2022-10-10T03:29:29.728Z,6.56
2022-10-10T03:29:50.309Z,6.55
2022-10-10T03:30:10.892Z,6.55
2022-10-10T03:30:31.478Z,6.54
2022-10-10T03:30:51.866Z,6.55
2022-10-10T03:31:12.458Z,6.55
2022-10-10T03:31:33.029Z,6.54
2022-10-10T03:31:53.426Z,6.54
2022-10-10T03:32:13.843Z,6.52
2022-10-10T03:32:34.404Z,6.54
2022-10-10T03:32:54.986Z,6.55
2022-10-10T03:33:15.585Z,6.54
2022-10-10T03:33:36.165Z,6.55
2022-10-10T03:33:56.742Z,6.54
2022-10-10T03:34:17.322Z,6.54
2022-10-10T03:34:37.910Z,6.54
2022-10-10T03:34:58.303Z,6.54
2022-10-10T03:35:18.885Z,6.52
2022-10-10T03:35:39.282Z,6.52
2022-10-10T03:35:59.861Z,6.52
2022-10-10T03:36:20.443Z,6.52
2022-10-10T03:36:41.025Z,6.51
2022-10-10T03:37:01.418Z,6.49
2022-10-10T03:37:22.003Z,6.51
2022-10-10T03:37:42.588Z,6.51
2022-10-10T03:38:03.163Z,6.49
2022-10-10T03:38:23.757Z,6.51
2022-10-10T03:38:44.337Z,6.49
2022-10-10T03:39:04.918Z,6.48
2022-10-10T03:39:25.498Z,6.48
2022-10-10T03:39:46.078Z,6.48
2022-10-10T03:40:06.661Z,6.48
2022-10-10T03:40:27.243Z,6.48
2022-10-10T03:40:48.284Z,6.48
2022-10-10T03:41:08.863Z,6.48
2022-10-10T03:41:29.257Z,6.48
2022-10-10T03:41:49.839Z,6.49
2022-10-10T03:42:10.237Z,6.49
2022-10-10T03:42:30.817Z,6.48
2022-10-10T03:42:51.681Z,6.46
2022-10-10T03:43:12.377Z,6.48
2022-10-10T03:43:32.959Z,6.46
2022-10-10T03:43:53.541Z,6.46
2022-10-10T03:44:14.119Z,6.46
2022-10-10T03:44:34.701Z,6.44
2022-10-10T03:44:55.096Z,6.43
2022-10-10T03:45:15.494Z,6.44
2022-10-10T03:45:36.077Z,6.43
2022-10-10T03:45:56.659Z,6.41
2022-10-10T03:46:17.234Z,6.43
2022-10-10T03:46:37.813Z,6.43
2022-10-10T03:46:58.395Z,6.43
2022-10-10T03:47:18.999Z,6.41
2022-10-10T03:47:39.557Z,6.44
2022-10-10T03:48:48.471Z,6.41
2022-10-10T03:49:09.049Z,6.41
2022-10-10T03:49:29.629Z,6.43
2022-10-10T03:49:50.210Z,6.41
2022-10-10T03:50:12.440Z,6.41
2022-10-10T03:50:33.025Z,6.41
2022-10-10T03:50:53.617Z,6.43
2022-10-10T03:51:14.193Z,6.43
2022-10-10T03:51:34.780Z,6.41
2022-10-10T03:51:55.359Z,6.43
2022-10-10T03:52:15.940Z,6.43
2022-10-10T03:52:36.523Z,6.41
2022-10-10T03:52:56.914Z,6.43
2022-10-10T03:53:17.513Z,6.43
2022-10-10T03:53:38.095Z,6.41
2022-10-10T03:53:58.486Z,6.40
2022-10-10T03:54:18.881Z,6.41
2022-10-10T03:54:39.458Z,6.41
2022-10-10T03:55:00.043Z,6.41
2022-10-10T03:55:20.619Z,6.40
2022-10-10T03:55:41.201Z,6.40
2022-10-10T03:56:01.783Z,6.40
2022-10-10T03:56:22.361Z,6.40
2022-10-10T03:56:42.945Z,6.40
2022-10-10T03:57:03.525Z,6.40
2022-10-10T03:57:23.920Z,6.41
2022-10-10T03:57:44.503Z,6.38
2022-10-10T03:58:05.079Z,6.40
2022-10-10T03:58:25.680Z,6.40
2022-10-10T03:58:46.262Z,6.38
2022-10-10T03:59:06.843Z,6.40
2022-10-10T03:59:27.425Z,6.38
2022-10-10T03:59:48.011Z,6.37
2022-10-10T04:00:08.595Z,6.38
2022-10-10T04:00:29.175Z,6.37
2022-10-10T04:00:49.759Z,6.40
2022-10-10T04:01:10.392Z,6.37
2022-10-10T04:01:31.034Z,6.36
2022-10-10T04:01:51.601Z,6.37
2022-10-10T04:02:12.186Z,6.34
2022-10-10T04:03:20.119Z,6.33
2022-10-10T04:03:40.694Z,6.33
2022-10-10T04:04:01.283Z,6.31
2022-10-10T04:04:21.859Z,6.33
2022-10-10T04:04:42.256Z,6.33
2022-10-10T04:05:02.835Z,6.31
2022-10-10T04:05:23.416Z,6.33
2022-10-10T04:05:43.999Z,6.33
2022-10-10T04:06:04.577Z,6.31
2022-10-10T04:06:25.158Z,6.30
2022-10-10T04:06:45.744Z,6.31
2022-10-10T04:07:06.135Z,6.30
2022-10-10T04:07:26.716Z,6.30
2022-10-10T04:07:47.303Z,6.28
2022-10-10T04:08:07.880Z,6.28
2022-10-10T04:08:28.479Z,6.28
2022-10-10T04:08:49.063Z,6.30
2022-10-10T04:09:09.640Z,6.30
2022-10-10T04:09:30.225Z,6.30
2022-10-10T04:09:50.805Z,6.30
2022-10-10T04:10:11.390Z,6.30
2022-10-10T04:10:31.972Z,6.31
2022-10-10T04:10:52.560Z,6.30
2022-10-10T04:11:13.131Z,6.30
2022-10-10T04:11:33.715Z,6.28
2022-10-10T04:11:54.299Z,6.28
2022-10-10T04:12:14.880Z,6.28
2022-10-10T04:12:35.465Z,6.30
2022-10-10T04:12:56.044Z,6.28
2022-10-10T04:13:16.632Z,6.28
2022-10-10T04:13:37.222Z,6.28
2022-10-10T04:13:57.619Z,6.27
2022-10-10T04:14:18.200Z,6.28
2022-10-10T04:14:38.783Z,6.28
2022-10-10T04:14:59.371Z,6.30
2022-10-10T04:15:19.948Z,6.27
2022-10-10T04:15:40.530Z,6.27
2022-10-10T04:16:01.109Z,6.27
2022-10-10T04:16:21.691Z,6.28
2022-10-10T04:16:42.273Z,6.28
2022-10-10T04:17:03.411Z,6.28
2022-10-10T04:18:10.553Z,6.27
2022-10-10T04:18:31.172Z,6.28
2022-10-10T04:18:51.734Z,6.27
2022-10-10T04:19:12.316Z,6.28
2022-10-10T04:19:32.892Z,6.27
2022-10-10T04:19:53.480Z,6.27
2022-10-10T04:20:14.063Z,6.27
2022-10-10T04:20:34.641Z,6.25
2022-10-10T04:20:55.034Z,6.25
2022-10-10T04:21:15.616Z,6.25
2022-10-10T04:21:36.198Z,6.21
2022-10-10T04:21:56.779Z,6.25
2022-10-10T04:22:17.361Z,6.21
2022-10-10T04:22:37.945Z,6.22
2022-10-10T04:22:58.526Z,6.21
2022-10-10T04:23:19.105Z,6.21
2022-10-10T04:23:39.694Z,6.21
2022-10-10T04:24:00.279Z,6.22
2022-10-10T04:24:20.859Z,6.21
2022-10-10T04:24:41.440Z,6.21
2022-10-10T04:25:02.023Z,6.22
2022-10-10T04:25:22.419Z,6.21
2022-10-10T04:25:42.999Z,6.22
2022-10-10T04:26:03.582Z,6.21
2022-10-10T04:26:24.162Z,6.22
2022-10-10T04:26:44.557Z,6.19
2022-10-10T04:27:05.139Z,6.21
2022-10-10T04:27:25.720Z,6.19
2022-10-10T04:27:46.301Z,6.19
2022-10-10T04:28:06.986Z,6.18
2022-10-10T04:28:27.604Z,6.19
2022-10-10T04:28:48.193Z,6.19
2022-10-10T04:29:08.780Z,6.19
2022-10-10T04:29:29.370Z,6.19
2022-10-10T04:29:49.949Z,6.18
2022-10-10T04:30:10.531Z,6.17
2022-10-10T04:30:31.116Z,6.19
2022-10-10T04:30:51.703Z,6.18
2022-10-10T04:31:12.274Z,6.18
2022-10-10T04:31:32.859Z,6.18
2022-10-10T04:31:53.454Z,6.18
2022-10-10T04:32:14.018Z,6.18
2022-10-10T04:32:34.603Z,6.18
2022-10-10T04:32:54.999Z,6.17
2022-10-10T04:33:15.580Z,6.17
2022-10-10T04:33:36.191Z,6.15
2022-10-10T04:33:56.759Z,6.14
2022-10-10T04:34:17.340Z,6.12
2022-10-10T04:34:37.917Z,6.14
2022-10-10T04:34:58.502Z,6.14
2022-10-10T04:35:19.083Z,6.12
2022-10-10T04:35:39.668Z,6.11
2022-10-10T04:36:00.250Z,6.14
2022-10-10T04:36:20.828Z,6.11
2022-10-10T04:36:41.410Z,6.11
2022-10-10T04:37:01.989Z,6.11
2022-10-10T04:37:22.572Z,6.11
2022-10-10T04:37:43.157Z,6.12
2022-10-10T04:38:03.736Z,6.09
2022-10-10T04:38:24.321Z,6.09
2022-10-10T04:38:44.903Z,6.09
2022-10-10T04:39:05.496Z,6.09
2022-10-10T04:39:26.082Z,6.09
2022-10-10T04:39:46.663Z,6.11
2022-10-10T04:40:07.241Z,6.09
2022-10-10T04:40:27.829Z,6.09
2022-10-10T04:40:48.411Z,6.09
2022-10-10T04:41:09.000Z,6.08
2022-10-10T04:41:29.576Z,6.08
2022-10-10T04:41:50.010Z,6.08
2022-10-10T04:42:10.581Z,6.11
2022-10-10T04:42:31.166Z,6.06
2022-10-10T04:42:52.043Z,6.06
2022-10-10T04:43:12.826Z,6.08
2022-10-10T04:43:33.409Z,6.08
2022-10-10T04:43:53.991Z,6.06
2022-10-10T04:44:14.404Z,6.06
2022-10-10T04:44:35.005Z,6.06
2022-10-10T04:44:55.575Z,6.06
2022-10-10T04:45:16.155Z,6.06
2022-10-10T04:45:37.829Z,6.08
2022-10-10T04:45:58.495Z,6.04
2022-10-10T04:46:19.083Z,6.06
2022-10-10T04:46:39.472Z,6.04
2022-10-10T04:47:00.062Z,6.06
2022-10-10T04:47:20.640Z,6.04
2022-10-10T04:47:41.223Z,6.04
2022-10-10T04:48:01.811Z,6.04
2022-10-10T04:48:22.388Z,6.04
2022-10-10T04:48:42.992Z,6.04
2022-10-10T04:49:03.550Z,6.03
2022-10-10T04:49:24.188Z,6.01
2022-10-10T04:49:44.763Z,6.00
2022-10-10T04:50:05.346Z,6.01
2022-10-10T04:50:25.925Z,6.01
2022-10-10T04:50:46.507Z,6.03
2022-10-10T04:51:07.094Z,6.00
2022-10-10T04:51:27.483Z,6.00
2022-10-10T04:51:48.061Z,6.01
2022-10-10T04:52:08.633Z,6.01
2022-10-10T04:52:29.205Z,5.99
2022-10-10T04:52:50.087Z,5.99
2022-10-10T04:53:10.872Z,6.00
2022-10-10T04:53:31.452Z,5.99
2022-10-10T04:53:52.035Z,6.00
2022-10-10T04:54:12.612Z,5.99
2022-10-10T04:54:33.029Z,5.99
2022-10-10T04:54:53.612Z,5.97
2022-10-10T04:55:14.003Z,6.00
2022-10-10T04:55:34.584Z,5.97
2022-10-10T04:55:55.180Z,5.97
2022-10-10T04:56:15.752Z,5.97
2022-10-10T04:56:36.340Z,5.97
2022-10-10T04:56:56.915Z,5.97
2022-10-10T04:57:17.490Z,5.97
2022-10-10T04:57:38.074Z,6.00
2022-10-10T04:57:58.651Z,5.99
2022-10-10T04:58:19.047Z,5.99
2022-10-10T04:58:39.440Z,5.97
2022-10-10T04:59:00.028Z,5.97
2022-10-10T04:59:20.420Z,6.00
2022-10-10T04:59:41.011Z,5.97
2022-10-10T05:00:01.593Z,5.99
2022-10-10T05:00:22.177Z,5.97
2022-10-10T05:00:42.565Z,5.97
2022-10-10T05:01:03.175Z,5.97
2022-10-10T05:01:23.773Z,5.97
2022-10-10T05:01:44.494Z,5.99
2022-10-10T05:02:05.051Z,5.99
2022-10-10T05:02:25.636Z,5.99
2022-10-10T05:02:46.219Z,5.99
2022-10-10T05:03:06.612Z,5.97
2022-10-10T05:03:27.194Z,5.99
2022-10-10T05:03:47.608Z,5.97
2022-10-10T05:04:08.168Z,5.99
2022-10-10T05:04:28.750Z,5.97
2022-10-10T05:04:49.354Z,5.97
2022-10-10T05:05:09.750Z,5.99
2022-10-10T05:05:30.331Z,5.99
2022-10-10T05:05:50.916Z,5.99
2022-10-10T05:06:11.496Z,5.96
2022-10-10T05:06:32.084Z,5.96
2022-10-10T05:06:52.664Z,5.96
2022-10-10T05:07:13.247Z,5.99
2022-10-10T05:07:33.828Z,5.97
2022-10-10T05:07:55.614Z,5.96
2022-10-10T05:08:14.806Z,5.96
2022-10-10T05:08:35.383Z,5.96
2022-10-10T05:08:55.964Z,5.97
2022-10-10T05:09:16.553Z,5.96
2022-10-10T05:09:37.132Z,5.97
2022-10-10T05:09:57.729Z,5.96
2022-10-10T05:10:18.307Z,5.94
2022-10-10T05:10:38.905Z,5.93
2022-10-10T05:10:59.474Z,5.94
2022-10-10T05:11:20.056Z,5.94
2022-10-10T05:11:40.636Z,5.94
2022-10-10T05:12:01.219Z,5.93
2022-10-10T05:12:21.801Z,5.93
2022-10-10T05:12:42.382Z,5.93
2022-10-10T05:13:02.962Z,5.91
2022-10-10T05:13:23.544Z,5.91
2022-10-10T05:13:44.127Z,5.91
2022-10-10T05:14:04.711Z,5.90
2022-10-10T05:14:25.292Z,5.91
2022-10-10T05:14:48.137Z,5.90
2022-10-10T05:15:08.967Z,5.90
2022-10-10T05:15:29.550Z,5.86
2022-10-10T05:15:50.130Z,5.89
2022-10-10T05:16:10.745Z,5.86
2022-10-10T05:16:31.327Z,5.89
2022-10-10T05:16:51.908Z,5.86
2022-10-10T05:17:12.492Z,5.86
2022-10-10T05:17:33.076Z,5.89
2022-10-10T05:17:53.657Z,5.86
2022-10-10T05:18:14.240Z,5.83
2022-10-10T05:18:34.818Z,5.85
2022-10-10T05:18:55.242Z,5.86
2022-10-10T05:19:15.797Z,5.83
2022-10-10T05:19:36.384Z,5.83
2022-10-10T05:19:56.968Z,5.81
2022-10-10T05:20:17.563Z,5.82
2022-10-10T05:20:38.147Z,5.82
2022-10-10T05:21:03.479Z,5.82
2022-10-10T05:21:19.131Z,5.81
2022-10-10T05:21:39.528Z,5.81
2022-10-10T05:22:00.110Z,5.81
2022-10-10T05:22:20.699Z,5.81
2022-10-10T05:22:41.279Z,5.81
2022-10-10T05:23:01.677Z,5.79
2022-10-10T05:23:22.263Z,5.79
2022-10-10T05:23:42.844Z,5.78
2022-10-10T05:24:03.423Z,5.76
2022-10-10T05:24:24.022Z,5.74
2022-10-10T05:24:44.587Z,5.78
2022-10-10T05:25:05.186Z,5.75
2022-10-10T05:25:25.764Z,5.74
2022-10-10T05:25:46.346Z,5.72
2022-10-10T05:26:06.923Z,5.74
2022-10-10T05:26:27.503Z,5.71
2022-10-10T05:26:47.897Z,5.71
2022-10-10T05:27:08.292Z,5.71
2022-10-10T05:27:28.875Z,5.71
2022-10-10T05:27:49.457Z,5.68
2022-10-10T05:28:10.086Z,5.68
2022-10-10T05:28:30.717Z,5.65
2022-10-10T05:28:51.287Z,5.64
2022-10-10T05:29:11.866Z,5.65
2022-10-10T05:29:32.447Z,5.64
2022-10-10T05:29:53.028Z,5.63
2022-10-10T05:30:13.623Z,5.61
2022-10-10T05:30:34.202Z,5.63
2022-10-10T05:30:54.788Z,5.61
2022-10-10T05:31:15.369Z,5.61
2022-10-10T05:31:35.952Z,5.60
2022-10-10T05:31:56.349Z,5.61
2022-10-10T05:32:16.935Z,5.58
2022-10-10T05:32:37.519Z,5.60
2022-10-10T05:32:58.097Z,5.57
2022-10-10T05:33:18.687Z,5.57
2022-10-10T05:33:39.268Z,5.57
2022-10-10T05:33:59.685Z,5.56
2022-10-10T05:34:20.244Z,5.57
2022-10-10T05:34:40.829Z,5.54
2022-10-10T05:35:01.408Z,5.53
2022-10-10T05:35:22.002Z,5.54
2022-10-10T05:35:42.588Z,5.53
2022-10-10T05:36:03.171Z,5.54
2022-10-10T05:36:23.755Z,5.54
2022-10-10T05:36:44.342Z,5.54
2022-10-10T05:37:04.926Z,5.56
2022-10-10T05:37:25.512Z,5.56
2022-10-10T05:37:46.093Z,5.56
2022-10-10T05:38:06.672Z,5.57
2022-10-10T05:38:27.258Z,5.56
2022-10-10T05:38:47.836Z,5.56
2022-10-10T05:39:08.421Z,5.57
2022-10-10T05:39:29.003Z,5.56
2022-10-10T05:39:54.402Z,5.56
2022-10-10T05:40:09.992Z,5.54
2022-10-10T05:40:30.585Z,5.56
2022-10-10T05:40:51.159Z,5.56
2022-10-10T05:41:11.738Z,5.57
2022-10-10T05:41:32.320Z,5.54
2022-10-10T05:41:52.899Z,5.57
2022-10-10T05:42:13.478Z,5.56
2022-10-10T05:42:34.061Z,5.56
2022-10-10T05:42:54.640Z,5.57
2022-10-10T05:43:15.225Z,5.57
2022-10-10T05:43:35.807Z,5.56
2022-10-10T05:43:56.202Z,5.57
2022-10-10T05:44:16.784Z,5.56
2022-10-10T05:44:37.364Z,5.56
2022-10-10T05:44:57.944Z,5.57
2022-10-10T05:45:18.543Z,5.56
2022-10-10T05:45:39.128Z,5.57
2022-10-10T05:45:59.708Z,5.58
2022-10-10T05:46:20.291Z,5.57
2022-10-10T05:46:40.680Z,5.56
2022-10-10T05:47:01.073Z,5.56
2022-10-10T05:47:26.681Z,5.56
2022-10-10T05:47:42.063Z,5.57
2022-10-10T05:48:02.641Z,5.57
2022-10-10T05:48:23.223Z,5.57
2022-10-10T05:48:43.803Z,5.56
2022-10-10T05:49:04.409Z,5.54
2022-10-10T05:49:24.971Z,5.56
2022-10-10T05:49:45.554Z,5.56
2022-10-10T05:50:06.211Z,5.54
2022-10-10T05:50:26.762Z,5.54
2022-10-10T05:50:47.345Z,5.54
2022-10-10T05:51:07.928Z,5.53
2022-10-10T05:51:28.576Z,5.53
2022-10-10T05:51:48.907Z,5.51
2022-10-10T05:52:09.490Z,5.54
2022-10-10T05:52:30.075Z,5.53
2022-10-10T05:52:50.935Z,5.54
2022-10-10T05:53:11.611Z,5.53
2022-10-10T05:53:32.191Z,5.53
2022-10-10T05:53:52.769Z,5.53
2022-10-10T05:54:13.353Z,5.53
2022-10-10T05:54:33.938Z,5.51
2022-10-10T05:54:54.518Z,5.53
2022-10-10T05:55:15.117Z,5.53
2022-10-10T05:55:35.698Z,5.53
2022-10-10T05:55:56.278Z,5.51
2022-10-10T05:56:16.859Z,5.53
2022-10-10T05:56:37.437Z,5.53
2022-10-10T05:56:58.020Z,5.51
2022-10-10T05:57:18.607Z,5.53
2022-10-10T05:57:39.006Z,5.53
2022-10-10T05:57:59.596Z,5.53
2022-10-10T05:58:20.175Z,5.53
2022-10-10T05:58:40.744Z,5.54
2022-10-10T05:59:01.144Z,5.54
2022-10-10T05:59:21.721Z,5.54
2022-10-10T05:59:42.294Z,5.57
2022-10-10T06:00:02.879Z,5.57
2022-10-10T06:00:23.470Z,5.58
2022-10-10T06:00:44.051Z,5.58
2022-10-10T06:01:04.633Z,5.58
2022-10-10T06:01:25.213Z,5.60
2022-10-10T06:01:45.798Z,5.58
2022-10-10T06:02:06.415Z,5.60
2022-10-10T06:02:26.993Z,5.61
2022-10-10T06:02:47.644Z,5.64
2022-10-10T06:03:08.239Z,5.63
2022-10-10T06:03:28.819Z,5.64
2022-10-10T06:03:49.407Z,5.65
2022-10-10T06:04:10.009Z,5.65
2022-10-10T06:04:30.570Z,5.65
2022-10-10T06:04:51.154Z,5.64
2022-10-10T06:05:11.738Z,5.65
2022-10-10T06:05:32.336Z,5.68
2022-10-10T06:05:52.915Z,5.68
2022-10-10T06:06:13.496Z,5.71
2022-10-10T06:06:34.079Z,5.72
2022-10-10T06:06:54.664Z,5.72
2022-10-10T06:07:15.239Z,5.76
2022-10-10T06:07:59.524Z,5.74
2022-10-10T06:08:12.365Z,5.76
2022-10-10T06:08:16.636Z,5.76
2022-10-10T06:08:37.216Z,5.78
2022-10-10T06:08:57.800Z,5.79
2022-10-10T06:09:18.380Z,5.78
2022-10-10T06:09:38.963Z,5.78
2022-10-10T06:09:59.544Z,5.81
2022-10-10T06:10:20.125Z,5.79
2022-10-10T06:10:40.726Z,5.82
2022-10-10T06:11:02.315Z,5.82
2022-10-10T06:11:22.844Z,5.83
2022-10-10T06:11:43.431Z,5.83
2022-10-10T06:12:04.017Z,5.83
2022-10-10T06:12:24.597Z,5.89
2022-10-10T06:12:45.177Z,5.90
2022-10-10T06:13:05.760Z,5.90
2022-10-10T06:13:26.338Z,5.91
2022-10-10T06:13:46.736Z,5.93
2022-10-10T06:14:07.315Z,5.96
2022-10-10T06:14:27.900Z,5.96
2022-10-10T06:14:48.481Z,5.99
2022-10-10T06:15:09.062Z,5.97
2022-10-10T06:15:29.643Z,5.99
2022-10-10T06:15:50.239Z,6.01
2022-10-10T06:16:10.825Z,6.00
2022-10-10T06:16:31.407Z,6.04
2022-10-10T06:16:51.985Z,6.06
2022-10-10T06:17:12.567Z,6.08
2022-10-10T06:17:33.150Z,6.09
2022-10-10T06:17:53.744Z,6.11
2022-10-10T06:18:14.320Z,6.12
2022-10-10T06:18:34.900Z,6.14
2022-10-10T06:18:55.483Z,6.14
2022-10-10T06:19:16.097Z,6.15
2022-10-10T06:19:36.651Z,6.18
2022-10-10T06:19:57.234Z,6.19
2022-10-10T06:20:17.816Z,6.21
2022-10-10T06:20:38.401Z,6.22
2022-10-10T06:20:58.992Z,6.27
2022-10-10T06:21:19.572Z,6.27
2022-10-10T06:21:40.150Z,6.30
2022-10-10T06:22:00.738Z,6.30
2022-10-10T06:22:21.126Z,6.30
2022-10-10T06:22:41.721Z,6.31
2022-10-10T06:23:02.294Z,6.34
2022-10-10T06:23:22.873Z,6.36
2022-10-10T06:23:43.455Z,6.36
2022-10-10T06:24:04.040Z,6.38
2022-10-10T06:24:24.621Z,6.40
2022-10-10T06:24:48.430Z,6.40
2022-10-10T06:25:15.177Z,6.46
2022-10-10T06:25:39.319Z,6.44
2022-10-10T06:25:46.418Z,6.49
2022-10-10T06:26:07.029Z,6.51
2022-10-10T06:26:27.625Z,6.51
2022-10-10T06:26:48.215Z,6.54
2022-10-10T06:27:08.793Z,6.55
2022-10-10T06:27:29.373Z,6.56
2022-10-10T06:27:49.955Z,6.58
2022-10-10T06:28:10.626Z,6.62
2022-10-10T06:28:31.299Z,6.64
2022-10-10T06:28:51.878Z,6.67
2022-10-10T06:29:12.463Z,6.69
2022-10-10T06:29:33.046Z,6.70
2022-10-10T06:29:53.627Z,6.70
2022-10-10T06:30:14.211Z,6.73
2022-10-10T06:30:34.793Z,6.74
2022-10-10T06:30:55.213Z,6.74
2022-10-10T06:31:15.792Z,6.76
2022-10-10T06:31:36.388Z,6.74
2022-10-10T06:31:56.951Z,6.74
2022-10-10T06:32:17.534Z,6.74
2022-10-10T06:32:38.112Z,6.76
2022-10-10T06:32:59.085Z,6.76
2022-10-10T06:33:19.840Z,6.77
2022-10-10T06:33:40.416Z,6.76
2022-10-10T06:34:00.995Z,6.79
2022-10-10T06:34:21.600Z,6.77
2022-10-10T06:34:42.157Z,6.79
2022-10-10T06:35:02.738Z,6.80
2022-10-10T06:35:23.336Z,6.80
2022-10-10T06:35:43.907Z,6.80
2022-10-10T06:36:04.497Z,6.81
2022-10-10T06:36:25.080Z,6.80
2022-10-10T06:36:45.662Z,6.80
2022-10-10T06:37:06.060Z,6.84
2022-10-10T06:37:26.638Z,6.84
2022-10-10T06:37:47.221Z,6.84
2022-10-10T06:38:07.804Z,6.84
2022-10-10T06:38:28.384Z,6.85
2022-10-10T06:38:48.967Z,6.85
2022-10-10T06:39:09.547Z,6.85
2022-10-10T06:39:30.159Z,6.85
2022-10-10T06:39:50.745Z,6.87
2022-10-10T06:40:11.325Z,6.88